Time;durP1;ratioP1;P1;durP2;ratioP2;P2;SDS_P1;SDS_P2;PMS_P1;PMS_P2;Temp;Humidity;BMP_temperature;BMP_pressure;BME280_temperature;BME280_humidity;BME280_pressure;Samples;Min_cycle;Max_cycle;Signal;HPM_P1;HPM_P2
2021/04/07 00:00:27;;;;;;;;;6.00;6.00;;;;;;;;4999154;28;8842;-79
2021/04/07 00:02:54;;;;;;;;;9.25;9.25;;;;;;;;4998918;28;8878;-79
2021/04/07 00:05:23;;;;;;;;;10.00;9.00;;;;;;;;5012458;28;8967;-79
2021/04/07 00:07:50;;;;;;;;;10.00;9.00;;;;;;;;5001352;28;9670;-79
2021/04/07 00:10:19;;;;;;;;;7.67;7.67;;;;;;;;4999632;28;8860;-79
2021/04/07 00:12:46;;;;;;;;;9.00;9.00;;;;;;;;5001003;28;8862;-79
2021/04/07 00:15:17;;;;;;;;;10.00;10.00;;;;;;;;4999061;28;8943;-79
2021/04/07 00:17:45;;;;;;;;;6.00;6.00;;;;;;;;4998039;28;8871;-79
2021/04/07 00:20:14;;;;;;;;;10.00;10.00;;;;;;;;4998187;28;8870;-79
2021/04/07 00:22:41;;;;;;;;;12.25;11.00;;;;;;;;5000154;28;8874;-79
2021/04/07 00:25:09;;;;;;;;;9.50;9.50;;;;;;;;4999381;28;9079;-79
2021/04/07 00:27:38;;;;;;;;;5.50;5.50;;;;;;;;5007628;28;9018;-79
2021/04/07 00:30:06;;;;;;;;;6.00;6.00;;;;;;;;5000994;28;8858;-79
2021/04/07 00:32:33;;;;;;;;;12.00;11.50;;;;;;;;4998998;28;8895;-80
2021/04/07 00:35:03;;;;;;;;;7.00;7.00;;;;;;;;5000873;28;8897;-79
2021/04/07 00:37:29;;;;;;;;;5.75;5.75;;;;;;;;4982674;28;8870;-78
2021/04/07 00:39:57;;;;;;;;;9.25;9.25;;;;;;;;5000397;28;8887;-76
2021/04/07 00:42:24;;;;;;;;;10.00;10.00;;;;;;;;4999168;28;8899;-77
2021/04/07 00:44:52;;;;;;;;;7.00;7.00;;;;;;;;5000165;28;8871;-77
2021/04/07 00:47:21;;;;;;;;;9.75;9.75;;;;;;;;4987094;28;8860;-77
2021/04/07 00:49:48;;;;;;;;;10.00;10.00;;;;;;;;4991534;28;8952;-77
2021/04/07 00:52:16;;;;;;;;;8.00;8.00;;;;;;;;5009117;28;9015;-77
2021/04/07 00:54:43;;;;;;;;;9.00;9.00;;;;;;;;5003321;28;8902;-76
2021/04/07 00:57:10;;;;;;;;;9.00;9.00;;;;;;;;5003654;28;8908;-76
2021/04/07 00:59:37;;;;;;;;;6.33;6.33;;;;;;;;4985538;28;8952;-76
2021/04/07 01:02:04;;;;;;;;;12.00;12.00;;;;;;;;5001358;28;8831;-76
2021/04/07 01:04:31;;;;;;;;;7.00;7.00;;;;;;;;5007535;28;8874;-76
2021/04/07 01:06:59;;;;;;;;;10.00;10.00;;;;;;;;5001430;28;8882;-76
2021/04/07 01:09:27;;;;;;;;;7.00;7.00;;;;;;;;5003758;28;8903;-76
2021/04/07 01:11:54;;;;;;;;;9.00;9.00;;;;;;;;5010601;28;8910;-75
2021/04/07 01:14:21;;;;;;;;;9.50;9.50;;;;;;;;5004990;28;8862;-75
2021/04/07 01:16:48;;;;;;;;;9.25;9.25;;;;;;;;4987062;28;8886;-75
2021/04/07 01:19:16;;;;;;;;;9.75;9.00;;;;;;;;5003363;28;9652;-75
2021/04/07 01:21:43;;;;;;;;;6.00;6.00;;;;;;;;5003079;28;8886;-75
2021/04/07 01:24:11;;;;;;;;;9.50;9.50;;;;;;;;5001457;28;8889;-75
2021/04/07 01:26:38;;;;;;;;;12.00;12.00;;;;;;;;5004973;28;8870;-76
2021/04/07 01:29:06;;;;;;;;;11.00;11.00;;;;;;;;5000391;28;8910;-75
2021/04/07 01:31:33;;;;;;;;;7.50;7.50;;;;;;;;5015852;28;8877;-76
2021/04/07 01:33:59;;;;;;;;;9.00;9.00;;;;;;;;5008469;28;8870;-75
2021/04/07 01:36:26;;;;;;;;;6.00;6.00;;;;;;;;5003000;28;8904;-76
2021/04/07 01:38:53;;;;;;;;;9.75;9.75;;;;;;;;5002589;28;8855;-75
2021/04/07 01:41:22;;;;;;;;;9.00;9.00;;;;;;;;5002969;28;8862;-75
2021/04/07 01:43:49;;;;;;;;;9.50;9.50;;;;;;;;5004283;28;9587;-75
2021/04/07 01:46:17;;;;;;;;;10.50;10.50;;;;;;;;5001694;28;9440;-76
2021/04/07 01:48:45;;;;;;;;;8.00;8.00;;;;;;;;5004092;28;8889;-76
2021/04/07 01:51:12;;;;;;;;;9.00;9.00;;;;;;;;5002131;28;8863;-76
2021/04/07 01:53:39;;;;;;;;;4.00;4.00;;;;;;;;4990088;28;8882;-77
2021/04/07 01:56:06;;;;;;;;;11.50;11.50;;;;;;;;5003632;28;8877;-76
2021/04/07 01:58:34;;;;;;;;;10.25;10.25;;;;;;;;5002442;28;10229;-75
2021/04/07 02:01:01;;;;;;;;;9.00;7.00;;;;;;;;5001019;28;8822;-74
2021/04/07 02:03:28;;;;;;;;;7.00;7.00;;;;;;;;4988785;28;9651;-75
2021/04/07 02:05:55;;;;;;;;;11.50;11.50;;;;;;;;4994277;28;8862;-75
2021/04/07 02:08:22;;;;;;;;;10.00;10.00;;;;;;;;5000442;28;9664;-75
2021/04/07 02:10:49;;;;;;;;;10.50;10.50;;;;;;;;5002377;28;8882;-75
2021/04/07 02:13:16;;;;;;;;;9.00;9.00;;;;;;;;5001681;28;8866;-77
2021/04/07 02:15:44;;;;;;;;;8.00;8.00;;;;;;;;5008785;28;8883;-77
2021/04/07 02:18:11;;;;;;;;;7.00;7.00;;;;;;;;5001471;28;8875;-78
2021/04/07 02:20:38;;;;;;;;;10.50;9.50;;;;;;;;5001509;28;8875;-78
2021/04/07 02:23:05;;;;;;;;;9.50;9.50;;;;;;;;5001907;28;9672;-78
2021/04/07 02:25:32;;;;;;;;;14.50;14.50;;;;;;;;5001070;28;9663;-77
2021/04/07 02:27:59;;;;;;;;;11.00;11.00;;;;;;;;5001944;28;8895;-77
2021/04/07 02:30:26;;;;;;;;;11.50;11.50;;;;;;;;5000471;28;9569;-77
2021/04/07 02:32:53;;;;;;;;;10.00;10.00;;;;;;;;5002448;28;8901;-77
2021/04/07 02:35:20;;;;;;;;;9.75;9.75;;;;;;;;5008018;28;8876;-77
2021/04/07 02:37:47;;;;;;;;;11.50;11.50;;;;;;;;5008995;28;9026;-78
2021/04/07 02:40:15;;;;;;;;;9.75;9.75;;;;;;;;5002349;28;8905;-77
2021/04/07 02:42:42;;;;;;;;;10.00;10.00;;;;;;;;4991084;28;8918;-77
2021/04/07 02:45:09;;;;;;;;;12.50;12.50;;;;;;;;5002618;28;8908;-77
2021/04/07 02:47:36;;;;;;;;;16.00;16.00;;;;;;;;5002219;28;8874;-77
2021/04/07 02:50:05;;;;;;;;;12.25;12.25;;;;;;;;5001407;28;8892;-77
2021/04/07 02:52:32;;;;;;;;;12.00;12.00;;;;;;;;5000270;28;8906;-77
2021/04/07 02:54:59;;;;;;;;;12.00;12.00;;;;;;;;5001053;28;8874;-77
2021/04/07 02:57:26;;;;;;;;;13.00;13.00;;;;;;;;4985316;28;8844;-77
2021/04/07 02:59:53;;;;;;;;;12.00;12.00;;;;;;;;5007336;28;8863;-77
2021/04/07 03:02:20;;;;;;;;;12.50;12.50;;;;;;;;4984456;28;8908;-77
2021/04/07 03:04:47;;;;;;;;;13.00;13.00;;;;;;;;5003984;28;8882;-77
2021/04/07 03:07:15;;;;;;;;;9.75;9.75;;;;;;;;5001148;28;8866;-77
2021/04/07 03:09:42;;;;;;;;;9.50;9.50;;;;;;;;5001438;28;8886;-77
2021/04/07 03:12:09;;;;;;;;;14.50;14.50;;;;;;;;5000382;28;8928;-77
2021/04/07 03:14:36;;;;;;;;;13.00;13.00;;;;;;;;5000044;28;8933;-77
2021/04/07 03:17:03;;;;;;;;;13.00;13.00;;;;;;;;4992205;28;8875;-78
2021/04/07 03:19:30;;;;;;;;;14.25;14.25;;;;;;;;5008470;28;8917;-77
2021/04/07 03:21:57;;;;;;;;;9.75;9.75;;;;;;;;5002205;28;8878;-76
2021/04/07 03:24:25;;;;;;;;;15.00;15.00;;;;;;;;5001346;28;8875;-76
2021/04/07 03:26:52;;;;;;;;;9.50;9.50;;;;;;;;5000273;28;8859;-76
2021/04/07 03:29:19;;;;;;;;;13.50;13.00;;;;;;;;5001848;28;8973;-77
2021/04/07 03:31:46;;;;;;;;;14.00;14.00;;;;;;;;5000755;28;8812;-75
2021/04/07 03:34:12;;;;;;;;;9.75;9.75;;;;;;;;5001408;28;9073;-77
2021/04/07 03:36:39;;;;;;;;;12.00;12.00;;;;;;;;5001474;28;8855;-76
2021/04/07 03:39:07;;;;;;;;;13.00;13.00;;;;;;;;5000772;28;8895;-76
2021/04/07 03:41:35;;;;;;;;;10.50;10.50;;;;;;;;5009371;28;8864;-76
2021/04/07 03:44:01;;;;;;;;;13.50;13.50;;;;;;;;5001685;28;8867;-76
2021/04/07 03:46:28;;;;;;;;;12.00;12.00;;;;;;;;5001446;28;8995;-75
2021/04/07 03:48:56;;;;;;;;;12.00;12.00;;;;;;;;4999915;28;8897;-76
2021/04/07 03:51:23;;;;;;;;;14.50;14.50;;;;;;;;5002117;28;8890;-75
2021/04/07 03:53:50;;;;;;;;;14.00;14.00;;;;;;;;5000538;28;8861;-76
2021/04/07 03:56:17;;;;;;;;;13.50;13.50;;;;;;;;5000105;28;8859;-75
2021/04/07 03:58:45;;;;;;;;;12.25;12.25;;;;;;;;4984336;28;8933;-77
2021/04/07 04:01:13;;;;;;;;;15.00;15.00;;;;;;;;5005230;28;8830;-77
2021/04/07 04:03:40;;;;;;;;;12.75;12.75;;;;;;;;5010976;28;8872;-77
2021/04/07 04:06:07;;;;;;;;;14.75;14.00;;;;;;;;5000967;28;8863;-79
2021/04/07 04:08:34;;;;;;;;;7.00;7.00;;;;;;;;5001101;28;8887;-77
2021/04/07 04:11:01;;;;;;;;;17.00;17.00;;;;;;;;4999507;28;8859;-79
2021/04/07 04:13:27;;;;;;;;;15.75;14.50;;;;;;;;4999802;28;8910;-79
2021/04/07 04:15:56;;;;;;;;;18.00;18.00;;;;;;;;5005077;28;8843;-78
2021/04/07 04:18:22;;;;;;;;;17.00;17.00;;;;;;;;5003049;28;8970;-77
2021/04/07 04:20:49;;;;;;;;;15.50;15.50;;;;;;;;5002302;28;8879;-78
2021/04/07 04:23:16;;;;;;;;;15.25;15.25;;;;;;;;5003576;28;8918;-77
2021/04/07 04:25:43;;;;;;;;;15.25;15.25;;;;;;;;4994279;28;8890;-78
2021/04/07 04:28:10;;;;;;;;;17.00;14.00;;;;;;;;5016445;28;9759;-78
2021/04/07 04:30:37;;;;;;;;;10.50;10.50;;;;;;;;5003247;28;9649;-78
2021/04/07 04:33:06;;;;;;;;;12.25;12.25;;;;;;;;5012330;28;8872;-78
2021/04/07 04:35:33;;;;;;;;;13.00;12.50;;;;;;;;5004766;28;8868;-76
2021/04/07 04:38:00;;;;;;;;;12.50;12.50;;;;;;;;5004172;28;9637;-77
2021/04/07 04:40:27;;;;;;;;;16.50;16.50;;;;;;;;5003909;28;8906;-77
2021/04/07 04:42:53;;;;;;;;;17.50;17.50;;;;;;;;5005946;28;8991;-76
2021/04/07 04:45:20;;;;;;;;;14.00;14.00;;;;;;;;5003928;28;8868;-76
2021/04/07 04:47:47;;;;;;;;;15.00;15.00;;;;;;;;5012545;28;8889;-76
2021/04/07 04:50:15;;;;;;;;;17.00;17.00;;;;;;;;5005558;28;8867;-77
2021/04/07 04:52:42;;;;;;;;;9.25;9.25;;;;;;;;5004715;28;8921;-78
2021/04/07 04:55:10;;;;;;;;;17.50;15.75;;;;;;;;5004642;28;8872;-77
2021/04/07 04:57:37;;;;;;;;;16.25;16.25;;;;;;;;4986350;28;8870;-78
2021/04/07 05:00:06;;;;;;;;;15.25;15.25;;;;;;;;5005482;28;8878;-78
2021/04/07 05:02:33;;;;;;;;;10.00;10.00;;;;;;;;5003993;28;8876;-76
2021/04/07 05:05:00;;;;;;;;;15.00;15.00;;;;;;;;5004770;28;8872;-79
2021/04/07 05:07:28;;;;;;;;;12.00;12.00;;;;;;;;5004579;28;8875;-77
2021/04/07 05:09:55;;;;;;;;;19.00;19.00;;;;;;;;4995982;28;8947;-76
2021/04/07 05:12:22;;;;;;;;;11.00;11.00;;;;;;;;5004311;28;8876;-77
2021/04/07 05:14:50;;;;;;;;;15.00;15.00;;;;;;;;5003366;28;8875;-77
2021/04/07 05:17:17;;;;;;;;;17.50;16.00;;;;;;;;5005396;28;8875;-76
2021/04/07 05:19:44;;;;;;;;;16.75;15.25;;;;;;;;4986304;28;8887;-77
2021/04/07 05:22:11;;;;;;;;;18.75;18.75;;;;;;;;5004554;28;8889;-76
2021/04/07 05:24:39;;;;;;;;;12.00;12.00;;;;;;;;5010217;28;8861;-76
2021/04/07 05:27:06;;;;;;;;;16.00;16.00;;;;;;;;5002914;28;8942;-80
2021/04/07 05:29:33;;;;;;;;;14.50;14.50;;;;;;;;5002591;28;8909;-80
2021/04/07 05:32:00;;;;;;;;;16.00;16.00;;;;;;;;5008037;28;8835;-74
2021/04/07 05:34:27;;;;;;;;;15.50;15.50;;;;;;;;5003258;28;8914;-78
2021/04/07 05:36:55;;;;;;;;;15.00;15.00;;;;;;;;4985283;28;8896;-75
2021/04/07 05:39:22;;;;;;;;;13.00;13.00;;;;;;;;5003737;28;9001;-80
2021/04/07 05:41:50;;;;;;;;;17.25;17.25;;;;;;;;5006545;28;9758;-78
2021/04/07 05:44:17;;;;;;;;;12.75;12.25;;;;;;;;5003254;28;8871;-78
2021/04/07 05:46:44;;;;;;;;;15.00;15.00;;;;;;;;5002348;28;8863;-78
2021/04/07 05:49:11;;;;;;;;;15.00;15.00;;;;;;;;5002521;28;8867;-74
2021/04/07 05:51:38;;;;;;;;;11.50;11.50;;;;;;;;5004019;28;8917;-77
2021/04/07 05:54:05;;;;;;;;;13.00;13.00;;;;;;;;5008599;28;9015;-76
2021/04/07 05:56:32;;;;;;;;;14.50;14.50;;;;;;;;5003717;28;8901;-77
2021/04/07 05:59:00;;;;;;;;;12.50;12.50;;;;;;;;5002783;28;8888;-78
2021/04/07 06:01:29;;;;;;;;;12.00;12.00;;;;;;;;4985827;28;8797;-76
2021/04/07 06:03:56;;;;;;;;;12.25;12.25;;;;;;;;5003311;28;8891;-76
2021/04/07 06:06:22;;;;;;;;;16.50;15.25;;;;;;;;5002636;28;8889;-79
2021/04/07 06:08:50;;;;;;;;;16.50;16.50;;;;;;;;5003116;28;8893;-77
2021/04/07 06:11:18;;;;;;;;;15.75;14.50;;;;;;;;5002505;28;8876;-78
2021/04/07 06:13:45;;;;;;;;;18.00;17.50;;;;;;;;5004190;28;8875;-78
2021/04/07 06:16:14;;;;;;;;;18.00;18.00;;;;;;;;4986719;28;8866;-82
2021/04/07 06:18:41;;;;;;;;;13.00;13.00;;;;;;;;4998182;28;8876;-70
2021/04/07 06:21:08;;;;;;;;;19.50;19.50;;;;;;;;4999641;28;8957;-70
2021/04/07 06:23:35;;;;;;;;;10.00;10.00;;;;;;;;5001319;28;8884;-70
2021/04/07 06:26:01;;;;;;;;;15.75;15.75;;;;;;;;5002047;28;8902;-69
2021/04/07 06:28:28;;;;;;;;;18.25;18.25;;;;;;;;5001399;28;8987;-70
2021/04/07 06:30:55;;;;;;;;;20.50;20.50;;;;;;;;5000663;28;8863;-70
2021/04/07 06:33:24;;;;;;;;;17.50;17.50;;;;;;;;5004075;28;8991;-69
2021/04/07 06:35:52;;;;;;;;;18.00;18.00;;;;;;;;4999312;28;8845;-70
2021/04/07 06:38:21;;;;;;;;;10.00;10.00;;;;;;;;5001523;28;8881;-68
2021/04/07 06:40:49;;;;;;;;;22.67;22.67;;;;;;;;5001288;28;8912;-70
2021/04/07 06:43:16;;;;;;;;;16.00;15.00;;;;;;;;4998741;28;8964;-69
2021/04/07 06:45:45;;;;;;;;;16.67;16.67;;;;;;;;4995512;28;9017;-69
2021/04/07 06:48:13;;;;;;;;;16.00;16.00;;;;;;;;5001992;28;8875;-70
2021/04/07 06:50:41;;;;;;;;;21.33;21.33;;;;;;;;4996989;28;8883;-70
2021/04/07 06:53:09;;;;;;;;;16.00;16.00;;;;;;;;4998889;28;8877;-70
2021/04/07 06:55:37;;;;;;;;;23.33;23.33;;;;;;;;4996434;28;8906;-71
2021/04/07 06:58:06;;;;;;;;;27.33;27.33;;;;;;;;4997931;28;8870;-70
2021/04/07 07:00:34;;;;;;;;;26.67;22.00;;;;;;;;4997445;28;9681;-70
2021/04/07 07:03:02;;;;;;;;;19.33;19.33;;;;;;;;4998252;28;8871;-70
2021/04/07 07:05:30;;;;;;;;;13.00;13.00;;;;;;;;4996239;28;8871;-70
2021/04/07 07:08:02;;;;;;;;;13.00;13.00;;;;;;;;4998160;28;8874;-69
2021/04/07 07:10:37;;;;;;;;;15.33;15.33;;;;;;;;4996574;28;8990;-69
2021/04/07 07:13:05;;;;;;;;;20.33;20.33;;;;;;;;4997302;28;8887;-69
2021/04/07 07:15:32;;;;;;;;;7.67;7.67;;;;;;;;4998042;28;8887;-68
2021/04/07 07:17:59;;;;;;;;;17.33;17.33;;;;;;;;4997733;28;8870;-69
2021/04/07 07:20:30;;;;;;;;;13.00;13.00;;;;;;;;4994915;28;10210;-69
2021/04/07 07:22:58;;;;;;;;;15.00;15.00;;;;;;;;4996408;28;8879;-69
2021/04/07 07:25:26;;;;;;;;;13.00;13.00;;;;;;;;4996356;28;8882;-69
2021/04/07 07:28:01;;;;;;;;;12.00;12.00;;;;;;;;4996804;28;8924;-69
2021/04/07 07:30:41;;;;;;;;;15.00;15.00;;;;;;;;4998578;28;8869;-69
2021/04/07 07:33:17;;;;;;;;;18.00;18.00;;;;;;;;5005914;28;8846;-70
2021/04/07 07:35:45;;;;;;;;;14.33;14.33;;;;;;;;4999340;28;8846;-70
2021/04/07 07:38:12;;;;;;;;;14.33;14.33;;;;;;;;5000519;28;8877;-70
2021/04/07 07:40:40;;;;;;;;;12.00;12.00;;;;;;;;4983462;28;8891;-69
2021/04/07 07:43:07;;;;;;;;;18.67;13.67;;;;;;;;4994649;28;8891;-68
2021/04/07 07:45:39;;;;;;;;;15.33;12.33;;;;;;;;4998789;28;8897;-69
2021/04/07 07:48:11;;;;;;;;;11.33;11.33;;;;;;;;4998664;28;9709;-70
2021/04/07 07:50:41;;;;;;;;;15.00;13.00;;;;;;;;4997427;28;8901;-71
2021/04/07 07:53:19;;;;;;;;;16.00;11.00;;;;;;;;5001935;28;8879;-71
2021/04/07 07:55:50;;;;;;;;;7.00;7.00;;;;;;;;4997224;28;8920;-70
2021/04/07 07:58:19;;;;;;;;;8.67;8.67;;;;;;;;5000880;28;8905;-70
2021/04/07 08:00:46;;;;;;;;;10.00;9.33;;;;;;;;4998659;28;8839;-70
2021/04/07 08:03:15;;;;;;;;;11.00;10.00;;;;;;;;5000500;28;8877;-71
2021/04/07 08:05:43;;;;;;;;;7.33;7.33;;;;;;;;4982438;28;8941;-71
2021/04/07 08:08:11;;;;;;;;;8.67;7.67;;;;;;;;4982662;28;8919;-71
2021/04/07 08:10:38;;;;;;;;;4.67;4.67;;;;;;;;4999314;28;8859;-71
2021/04/07 08:13:10;;;;;;;;;7.00;7.00;;;;;;;;4999025;28;11485;-71
2021/04/07 08:15:38;;;;;;;;;7.75;5.50;;;;;;;;4999992;28;12398;-71
2021/04/07 08:18:07;;;;;;;;;4.00;4.00;;;;;;;;4998214;28;11536;-70
2021/04/07 08:20:35;;;;;;;;;5.00;3.00;;;;;;;;5000222;28;11520;-71
2021/04/07 08:23:04;;;;;;;;;2.00;2.00;;;;;;;;5000562;28;11543;-70
2021/04/07 08:25:31;;;;;;;;;2.50;2.50;;;;;;;;4998901;28;11488;-70
2021/04/07 08:27:59;;;;;;;;;4.00;2.50;;;;;;;;4998254;28;11595;-71
2021/04/07 08:30:28;;;;;;;;;2.00;2.00;;;;;;;;4998087;28;11509;-72
2021/04/07 08:32:55;;;;;;;;;2.00;2.00;;;;;;;;4999888;28;11528;-71
2021/04/07 08:35:24;;;;;;;;;2.00;2.00;;;;;;;;4996245;28;11584;-69
2021/04/07 08:38:03;;;;;;;;;4.75;2.00;;;;;;;;4998920;28;11514;-72
2021/04/07 08:40:39;;;;;;;;;0.00;0.00;;;;;;;;4998726;28;11521;-71
2021/04/07 08:43:07;;;;;;;;;1.00;1.00;;;;;;;;4998120;28;11581;-72
2021/04/07 08:45:42;;;;;;;;;1.25;1.25;;;;;;;;4998189;28;11526;-71
2021/04/07 08:48:18;;;;;;;;;5.00;2.00;;;;;;;;4995820;28;11520;-71
2021/04/07 08:50:46;;;;;;;;;1.00;1.00;;;;;;;;4983880;28;11464;-71
2021/04/07 08:53:15;;;;;;;;;2.00;0.75;;;;;;;;4999109;28;11633;-71
2021/04/07 08:55:51;;;;;;;;;0.00;0.00;;;;;;;;4997054;28;11504;-71
2021/04/07 08:58:23;;;;;;;;;0.00;0.00;;;;;;;;5001340;28;11465;-72
2021/04/07 09:00:53;;;;;;;;;0.00;0.00;;;;;;;;4998429;28;11471;-72
2021/04/07 09:03:23;;;;;;;;;1.00;1.00;;;;;;;;5003573;28;11504;-72
2021/04/07 09:05:51;;;;;;;;;0.00;0.00;;;;;;;;4998934;28;11608;-73
2021/04/07 09:08:21;;;;;;;;;1.00;1.00;;;;;;;;5003344;28;11520;-71
2021/04/07 09:10:49;;;;;;;;;1.00;1.00;;;;;;;;5004165;28;11564;-71
2021/04/07 09:13:18;;;;;;;;;1.75;1.75;;;;;;;;4986212;28;12460;-71
2021/04/07 09:15:52;;;;;;;;;4.00;0.50;;;;;;;;5004290;28;11477;-71
2021/04/07 09:18:20;;;;;;;;;1.25;1.25;;;;;;;;5004008;28;11496;-72
2021/04/07 09:20:52;;;;;;;;;1.50;1.50;;;;;;;;4984449;28;11474;-71
2021/04/07 09:23:25;;;;;;;;;1.00;1.00;;;;;;;;4988273;28;12419;-72
2021/04/07 09:25:54;;;;;;;;;2.00;2.00;;;;;;;;4991319;28;11533;-71
2021/04/07 09:28:37;;;;;;;;;5.00;2.00;;;;;;;;5004316;28;11692;-70
2021/04/07 09:31:10;;;;;;;;;3.25;3.25;;;;;;;;5000124;28;11454;-72
2021/04/07 09:33:39;;;;;;;;;2.75;2.75;;;;;;;;5004180;28;11645;-71
2021/04/07 09:36:07;;;;;;;;;2.50;2.50;;;;;;;;5003516;28;11594;-71
2021/04/07 09:38:36;;;;;;;;;4.25;3.00;;;;;;;;5001015;28;12359;-71
2021/04/07 09:41:08;;;;;;;;;0.00;0.00;;;;;;;;5004425;28;11488;-71
2021/04/07 09:43:36;;;;;;;;;0.75;0.75;;;;;;;;5002879;28;11484;-71
2021/04/07 09:46:05;;;;;;;;;0.00;0.00;;;;;;;;5003965;28;11421;-71
2021/04/07 09:48:41;;;;;;;;;0.00;0.00;;;;;;;;5003134;28;11490;-70
2021/04/07 09:51:20;;;;;;;;;0.25;0.25;;;;;;;;4992252;28;11508;-71
2021/04/07 09:53:47;;;;;;;;;1.25;1.25;;;;;;;;5003181;28;11583;-71
2021/04/07 09:56:14;;;;;;;;;0.00;0.00;;;;;;;;5004351;28;11511;-72
2021/04/07 09:58:42;;;;;;;;;1.00;1.00;;;;;;;;5003469;28;11510;-72
2021/04/07 10:01:10;;;;;;;;;0.00;0.00;;;;;;;;5002042;28;11883;-71
2021/04/07 10:03:38;;;;;;;;;0.00;0.00;;;;;;;;5003939;28;11446;-70
2021/04/07 10:06:16;;;;;;;;;0.75;0.75;;;;;;;;5002520;28;11457;-71
2021/04/07 10:08:43;;;;;;;;;0.00;0.00;;;;;;;;5002645;28;11544;-71
2021/04/07 10:11:09;;;;;;;;;0.00;0.00;;;;;;;;5003046;28;12218;-70
2021/04/07 10:13:37;;;;;;;;;1.00;0.00;;;;;;;;5003703;28;11404;-71
2021/04/07 10:16:14;;;;;;;;;0.00;0.00;;;;;;;;5003364;28;11438;-71
2021/04/07 10:18:44;;;;;;;;;1.50;0.25;;;;;;;;5000916;28;12020;-70
2021/04/07 10:21:15;;;;;;;;;0.00;0.00;;;;;;;;4985650;28;12219;-70
2021/04/07 10:23:43;;;;;;;;;0.00;0.00;;;;;;;;4998863;28;12437;-71
2021/04/07 10:26:10;;;;;;;;;0.00;0.00;;;;;;;;5002629;28;11486;-72
2021/04/07 10:28:37;;;;;;;;;1.00;1.00;;;;;;;;4998402;28;11604;-73
2021/04/07 10:31:11;;;;;;;;;0.00;0.00;;;;;;;;5000834;28;12255;-72
2021/04/07 10:33:38;;;;;;;;;1.25;0.25;;;;;;;;4999979;28;11483;-71
2021/04/07 10:36:07;;;;;;;;;1.00;1.00;;;;;;;;5000973;28;11475;-70
2021/04/07 10:38:36;;;;;;;;;0.00;0.00;;;;;;;;4983498;28;11462;-71
2021/04/07 10:41:05;;;;;;;;;0.00;0.00;;;;;;;;4998402;28;11488;-71
2021/04/07 10:43:34;;;;;;;;;1.00;1.00;;;;;;;;4998578;28;11451;-71
2021/04/07 10:46:02;;;;;;;;;0.50;0.50;;;;;;;;5001338;28;11468;-71
2021/04/07 10:48:29;;;;;;;;;0.75;0.75;;;;;;;;4984523;28;11444;-70
2021/04/07 10:50:58;;;;;;;;;0.00;0.00;;;;;;;;4999045;28;11430;-71
2021/04/07 10:53:30;;;;;;;;;1.00;1.00;;;;;;;;5000686;28;11434;-71
2021/04/07 10:55:59;;;;;;;;;1.25;1.25;;;;;;;;5002029;28;11485;-70
2021/04/07 10:58:27;;;;;;;;;3.00;1.00;;;;;;;;4998060;28;11442;-71
2021/04/07 11:04:19;;;;;;;;;0.00;0.00;;;;;;;;4983619;28;11117;-71
2021/04/07 11:06:50;;;;;;;;;1.00;1.00;;;;;;;;4999342;28;10849;-72
2021/04/07 11:09:24;;;;;;;;;1.00;1.00;;;;;;;;4997065;28;10925;-71
2021/04/07 11:11:53;;;;;;;;;1.00;1.00;;;;;;;;5003020;28;11133;-72
2021/04/07 11:14:21;;;;;;;;;1.00;1.00;;;;;;;;4999979;28;11156;-72
2021/04/07 11:16:56;;;;;;;;;0.00;0.00;;;;;;;;5001447;28;11333;-72
2021/04/07 11:19:23;;;;;;;;;1.00;1.00;;;;;;;;5000663;28;11074;-72
2021/04/07 11:21:51;;;;;;;;;3.00;1.25;;;;;;;;5000909;28;11070;-71
2021/04/07 11:24:19;;;;;;;;;1.00;1.00;;;;;;;;4999245;28;10975;-69
2021/04/07 11:26:45;;;;;;;;;2.50;1.00;;;;;;;;5001309;28;11124;-71
2021/04/07 11:29:12;;;;;;;;;1.25;1.25;;;;;;;;5000740;28;11665;-72
2021/04/07 11:31:39;;;;;;;;;0.00;0.00;;;;;;;;5001062;28;10899;-71
2021/04/07 11:34:08;;;;;;;;;2.00;2.00;;;;;;;;4967478;28;11363;-71
2021/04/07 11:36:51;;;;;;;;;1.00;1.00;;;;;;;;5000522;28;11722;-71
2021/04/07 11:39:24;;;;;;;;;1.00;1.00;;;;;;;;5001837;28;10821;-71
2021/04/07 11:42:06;;;;;;;;;1.00;1.00;;;;;;;;4983965;28;10786;-71
2021/04/07 11:44:33;;;;;;;;;1.50;0.00;;;;;;;;5001314;28;10798;-72
2021/04/07 11:47:02;;;;;;;;;2.00;2.00;;;;;;;;5001323;28;10700;-73
2021/04/07 11:49:29;;;;;;;;;3.00;2.00;;;;;;;;4999408;28;10820;-71
2021/04/07 11:51:56;;;;;;;;;0.75;0.75;;;;;;;;4997266;28;10754;-73
2021/04/07 11:54:24;;;;;;;;;1.00;1.00;;;;;;;;4998745;28;10510;-72
2021/04/07 11:56:51;;;;;;;;;1.00;1.00;;;;;;;;5000440;28;10656;-72
2021/04/07 11:59:20;;;;;;;;;1.00;1.00;;;;;;;;4998748;28;11433;-71
2021/04/07 12:01:49;;;;;;;;;0.75;0.75;;;;;;;;5000012;28;10574;-72
2021/04/07 12:04:16;;;;;;;;;1.25;1.25;;;;;;;;5002183;28;10602;-71
2021/04/07 12:06:44;;;;;;;;;2.50;1.00;;;;;;;;4999688;28;10589;-72
2021/04/07 12:09:11;;;;;;;;;3.00;1.00;;;;;;;;5000370;28;11240;-73
2021/04/07 12:11:39;;;;;;;;;1.75;1.75;;;;;;;;4997999;28;11409;-74
2021/04/07 12:14:08;;;;;;;;;2.25;1.00;;;;;;;;5000950;28;10419;-72
2021/04/07 12:16:36;;;;;;;;;1.00;1.00;;;;;;;;4999560;28;10343;-72
2021/04/07 12:19:03;;;;;;;;;1.00;1.00;;;;;;;;5000626;28;10409;-72
2021/04/07 12:21:30;;;;;;;;;1.00;1.00;;;;;;;;5000511;28;11357;-72
2021/04/07 12:23:57;;;;;;;;;3.00;1.00;;;;;;;;4999988;28;10522;-71
2021/04/07 12:26:24;;;;;;;;;2.00;2.00;;;;;;;;4983413;28;10412;-72
2021/04/07 12:28:52;;;;;;;;;1.00;1.00;;;;;;;;4999744;28;10568;-72
2021/04/07 12:31:20;;;;;;;;;2.00;2.00;;;;;;;;5001598;28;10330;-71
2021/04/07 12:33:52;;;;;;;;;2.25;1.00;;;;;;;;4999382;28;10224;-73
2021/04/07 12:36:20;;;;;;;;;1.00;1.00;;;;;;;;5000451;28;10189;-72
2021/04/07 12:38:46;;;;;;;;;1.50;1.50;;;;;;;;5000074;28;10060;-72
2021/04/07 12:41:19;;;;;;;;;2.00;2.00;;;;;;;;4999728;28;9879;-71
2021/04/07 12:43:46;;;;;;;;;1.00;1.00;;;;;;;;5002973;28;10061;-72
2021/04/07 12:46:15;;;;;;;;;1.00;1.00;;;;;;;;5004420;28;10030;-72
2021/04/07 12:48:43;;;;;;;;;2.75;2.75;;;;;;;;5002983;28;10109;-73
2021/04/07 12:51:10;;;;;;;;;1.00;1.00;;;;;;;;5002371;28;10188;-71
2021/04/07 12:53:37;;;;;;;;;1.25;1.25;;;;;;;;5001916;28;10107;-72
2021/04/07 12:56:05;;;;;;;;;2.00;2.00;;;;;;;;5004038;28;10088;-70
2021/04/07 12:58:32;;;;;;;;;2.00;2.00;;;;;;;;5002346;28;10126;-72
2021/04/07 13:00:59;;;;;;;;;2.00;2.00;;;;;;;;5004012;28;9720;-73
2021/04/07 13:03:27;;;;;;;;;2.00;2.00;;;;;;;;5006624;28;10582;-72
2021/04/07 13:05:53;;;;;;;;;2.25;2.25;;;;;;;;5002038;28;9828;-72
2021/04/07 13:08:20;;;;;;;;;1.00;1.00;;;;;;;;5002810;28;9899;-72
2021/04/07 13:10:47;;;;;;;;;1.00;1.00;;;;;;;;5001766;28;9776;-72
2021/04/07 13:13:13;;;;;;;;;1.00;1.00;;;;;;;;5001463;28;10094;-76
2021/04/07 13:15:41;;;;;;;;;1.50;1.00;;;;;;;;5001092;28;10814;-71
2021/04/07 13:18:07;;;;;;;;;3.75;1.75;;;;;;;;5001590;28;11760;-73
2021/04/07 13:20:35;;;;;;;;;2.75;2.75;;;;;;;;4999565;28;9951;-71
2021/04/07 13:23:02;;;;;;;;;2.00;2.00;;;;;;;;5002615;28;9982;-71
2021/04/07 13:25:29;;;;;;;;;2.00;2.00;;;;;;;;5000828;28;9964;-70
2021/04/07 13:27:56;;;;;;;;;2.75;2.75;;;;;;;;4985954;28;10091;-74
2021/04/07 13:30:31;;;;;;;;;2.50;2.00;;;;;;;;5003228;28;10131;-70
2021/04/07 13:33:02;;;;;;;;;1.00;1.00;;;;;;;;5004815;28;10367;-73
2021/04/07 13:35:31;;;;;;;;;2.00;2.00;;;;;;;;5004531;28;10240;-73
2021/04/07 13:38:03;;;;;;;;;2.25;2.25;;;;;;;;5006300;28;10320;-71
2021/04/07 13:40:52;;;;;;;;;3.00;3.00;;;;;;;;5005602;28;10138;-72
2021/04/07 13:43:20;;;;;;;;;2.50;2.00;;;;;;;;5003022;28;10764;-73
2021/04/07 13:45:47;;;;;;;;;2.00;2.00;;;;;;;;5001397;28;10263;-73
2021/04/07 13:48:15;;;;;;;;;1.00;1.00;;;;;;;;5002150;28;10075;-73
2021/04/07 13:50:42;;;;;;;;;2.00;2.00;;;;;;;;5002224;28;9873;-70
2021/04/07 13:53:13;;;;;;;;;3.00;3.00;;;;;;;;5002765;28;9905;-75
2021/04/07 13:55:41;;;;;;;;;3.00;3.00;;;;;;;;5002669;28;9887;-72
2021/04/07 13:58:08;;;;;;;;;2.00;2.00;;;;;;;;5004092;28;9806;-74
2021/04/07 14:00:35;;;;;;;;;1.00;1.00;;;;;;;;5001799;28;9582;-72
2021/04/07 14:03:02;;;;;;;;;1.00;1.00;;;;;;;;5003961;28;9916;-74
2021/04/07 14:05:29;;;;;;;;;1.00;1.00;;;;;;;;5001374;28;10081;-71
2021/04/07 14:07:58;;;;;;;;;1.75;1.75;;;;;;;;5002386;28;11038;-72
2021/04/07 14:10:26;;;;;;;;;1.00;1.00;;;;;;;;5004093;28;10546;-73
2021/04/07 14:12:55;;;;;;;;;2.25;2.25;;;;;;;;5000750;28;10513;-72
2021/04/07 14:15:22;;;;;;;;;1.50;1.50;;;;;;;;5002623;28;10749;-76
2021/04/07 14:17:49;;;;;;;;;1.25;1.25;;;;;;;;5001529;28;10768;-75
2021/04/07 14:20:17;;;;;;;;;1.50;1.50;;;;;;;;5002520;28;10716;-73
2021/04/07 14:22:44;;;;;;;;;35.75;35.50;;;;;;;;5002162;28;10809;-74
2021/04/07 14:25:14;;;;;;;;;2.00;2.00;;;;;;;;5001727;28;11630;-73
2021/04/07 14:27:43;;;;;;;;;1.00;1.00;;;;;;;;5001678;28;10882;-71
2021/04/07 14:30:12;;;;;;;;;1.00;1.00;;;;;;;;5003675;28;10933;-74
2021/04/07 14:32:39;;;;;;;;;1.00;1.00;;;;;;;;5002776;28;10630;-71
2021/04/07 14:35:07;;;;;;;;;1.00;1.00;;;;;;;;5002302;28;10628;-71
2021/04/07 14:37:34;;;;;;;;;1.00;1.00;;;;;;;;5001581;28;10877;-72
2021/04/07 14:40:01;;;;;;;;;2.00;2.00;;;;;;;;4998240;28;10880;-73
2021/04/07 14:42:28;;;;;;;;;2.00;2.00;;;;;;;;5000500;28;11105;-73
2021/04/07 14:44:56;;;;;;;;;2.50;2.50;;;;;;;;5002313;28;10998;-75
2021/04/07 14:47:23;;;;;;;;;2.75;2.50;;;;;;;;5000254;28;11772;-73
2021/04/07 14:49:50;;;;;;;;;2.00;2.00;;;;;;;;4983478;28;11007;-74